Time;durP1;ratioP1;P1;durP2;ratioP2;P2;SDS_P1;SDS_P2;PMS_P1;PMS_P2;Temp;Humidity;BMP_temperature;BMP_pressure;BME280_temperature;BME280_humidity;BME280_pressure;Samples;Min_cycle;Max_cycle;Signal;HPM_P1;HPM_P2
2022/07/19 00:00:17;;;;;;;7.55;2.88;;;;;;;23.79;83.23;100760.63;5050027;28;20128;-90
2022/07/19 00:02:44;;;;;;;9.60;2.58;;;;;;;23.78;83.58;100761.63;5056768;28;20056;-92
2022/07/19 00:05:12;;;;;;;7.93;2.95;;;;;;;23.82;81.19;100776.41;5047592;28;20053;-91
2022/07/19 00:07:40;;;;;;;9.25;2.83;;;;;;;23.74;80.89;100752.19;5053718;28;20053;-89
2022/07/19 00:10:09;;;;;;;7.50;2.67;;;;;;;23.95;79.76;100770.75;5055150;28;20044;-88
2022/07/19 00:12:36;;;;;;;7.90;2.55;;;;;;;23.81;78.66;100764.03;5055697;28;20048;-88
2022/07/19 00:15:05;;;;;;;7.75;2.50;;;;;;;23.89;79.60;100757.97;5053147;28;20132;-88
2022/07/19 00:17:32;;;;;;;7.13;2.97;;;;;;;23.87;76.93;100762.63;5053948;28;20056;-88
2022/07/19 00:19:58;;;;;;;7.13;2.38;;;;;;;24.02;77.01;100776.38;5039535;28;20041;-88
2022/07/19 00:22:25;;;;;;;8.65;1.95;;;;;;;23.95;75.59;100767.25;5043531;28;20049;-89
2022/07/19 00:24:52;;;;;;;6.78;2.80;;;;;;;23.92;73.48;100752.34;5050448;28;20059;-88
2022/07/19 00:27:19;;;;;;;6.47;1.90;;;;;;;24.04;73.34;100753.00;5055722;28;20530;-88
2022/07/19 00:29:47;;;;;;;6.90;2.08;;;;;;;24.01;74.39;100756.81;5064026;28;20055;-88
2022/07/19 00:32:14;;;;;;;7.78;2.17;;;;;;;23.88;73.92;100737.56;5056004;28;20085;-88
2022/07/19 00:34:41;;;;;;;7.50;1.95;;;;;;;23.91;77.22;100741.81;5055489;28;20051;-88
2022/07/19 00:37:07;;;;;;;6.35;2.05;;;;;;;23.91;76.31;100747.97;5053284;28;20723;-88
2022/07/19 00:39:34;;;;;;;10.65;2.17;;;;;;;23.78;78.05;100739.38;5045485;28;20040;-88
2022/07/19 00:42:01;;;;;;;7.95;2.30;;;;;;;23.77;81.48;100756.41;5055832;28;20052;-88
2022/07/19 00:44:28;;;;;;;6.75;2.08;;;;;;;23.74;79.45;100770.91;5048035;28;20040;-88
2022/07/19 00:46:55;;;;;;;6.57;2.08;;;;;;;23.41;81.54;100742.78;5040692;28;20675;-88
2022/07/19 00:49:22;;;;;;;6.25;2.30;;;;;;;23.41;83.03;100762.34;5070931;28;20044;-88
2022/07/19 00:51:52;;;;;;;7.15;2.25;;;;;;;23.48;86.15;100768.81;5054072;28;20744;-88
2022/07/19 00:54:20;;;;;;;5.75;1.88;;;;;;;23.63;82.51;100782.59;5066980;28;20139;-88
2022/07/19 00:56:50;;;;;;;6.95;1.83;;;;;;;23.54;80.31;100788.78;5051742;28;20080;-88
2022/07/19 00:59:18;;;;;;;7.00;2.03;;;;;;;23.38;80.89;100748.44;5057584;28;20040;-88
2022/07/19 01:01:45;;;;;;;8.45;2.33;;;;;;;23.46;81.51;100769.94;5050971;28;20052;-88
2022/07/19 01:04:12;;;;;;;7.57;2.08;;;;;;;23.45;81.02;100770.94;5049619;28;20071;-88
2022/07/19 01:06:41;;;;;;;6.82;2.28;;;;;;;23.37;81.55;100773.44;5055028;28;20060;-87
2022/07/19 01:09:08;;;;;;;5.30;1.95;;;;;;;23.52;82.09;100784.59;5058106;28;20046;-87
2022/07/19 01:11:35;;;;;;;6.22;2.00;;;;;;;23.30;80.75;100797.19;5055717;28;20044;-87
2022/07/19 01:14:02;;;;;;;6.68;2.00;;;;;;;23.34;80.92;100803.09;5055640;28;20048;-87
2022/07/19 01:16:29;;;;;;;7.95;2.30;;;;;;;23.35;80.24;100775.41;5057244;28;20139;-87
2022/07/19 01:18:56;;;;;;;7.43;2.45;;;;;;;23.31;81.56;100796.22;5053168;28;20049;-87
2022/07/19 01:21:25;;;;;;;6.85;2.17;;;;;;;23.02;83.87;100778.31;5058696;28;20044;-88
2022/07/19 01:23:52;;;;;;;5.20;1.77;;;;;;;23.23;81.07;100778.22;5050270;28;20135;-87
2022/07/19 01:26:19;;;;;;;6.63;2.13;;;;;;;23.12;83.14;100765.00;5052087;28;20052;-88
2022/07/19 01:28:46;;;;;;;7.30;2.38;;;;;;;22.98;85.14;100790.22;5054649;28;20048;-88
2022/07/19 01:31:13;;;;;;;5.70;2.08;;;;;;;22.88;93.11;100782.22;5047792;28;20135;-88
2022/07/19 01:33:45;;;;;;;7.78;2.15;;;;;;;22.73;100.00;100772.88;5049335;28;20076;-87
2022/07/19 01:36:12;;;;;;;7.45;2.22;;;;;;;22.67;100.00;100781.44;5052258;28;20468;-88
2022/07/19 01:38:39;;;;;;;7.25;2.03;;;;;;;22.63;100.00;100772.88;5046537;28;20072;-88
2022/07/19 01:41:07;;;;;;;6.90;1.95;;;;;;;22.72;100.00;100771.22;5053430;28;20486;-88
2022/07/19 01:43:34;;;;;;;5.60;1.92;;;;;;;22.78;100.00;100757.31;5051400;28;21433;-88
2022/07/19 01:46:01;;;;;;;5.88;2.05;;;;;;;22.74;100.00;100767.41;5048785;28;20075;-88
2022/07/19 01:48:28;;;;;;;6.88;2.30;;;;;;;22.64;100.00;100742.50;5070398;28;20049;-87
2022/07/19 01:50:55;;;;;;;7.68;2.35;;;;;;;22.61;100.00;100723.25;5054558;28;20056;-88
2022/07/19 01:53:22;;;;;;;5.05;1.75;;;;;;;22.79;100.00;100731.44;5051097;28;20045;-88
2022/07/19 01:55:49;;;;;;;5.38;1.88;;;;;;;22.66;100.00;100739.72;5053856;28;20044;-88
2022/07/19 01:58:16;;;;;;;6.75;2.10;;;;;;;22.61;100.00;100741.94;5067557;28;20044;-88
2022/07/19 02:00:43;;;;;;;5.65;1.98;;;;;;;22.35;100.00;100719.25;5052279;28;20808;-88
2022/07/19 02:03:09;;;;;;;7.63;2.40;;;;;;;22.22;100.00;100694.59;5067265;28;20051;-87
2022/07/19 02:05:36;;;;;;;5.95;2.00;;;;;;;22.32;100.00;100708.00;5055085;28;20059;-87
2022/07/19 02:08:03;;;;;;;6.63;2.00;;;;;;;22.42;100.00;100718.72;5053931;28;20402;-87
2022/07/19 02:10:31;;;;;;;6.35;2.30;;;;;;;22.18;100.00;100706.50;5069448;28;20067;-87
2022/07/19 02:12:58;;;;;;;6.47;1.85;;;;;;;22.19;100.00;100705.56;5057008;28;20667;-87
2022/07/19 02:15:25;;;;;;;5.80;2.10;;;;;;;22.25;100.00;100721.00;5073227;28;20481;-87
2022/07/19 02:17:52;;;;;;;6.88;1.80;;;;;;;22.17;100.00;100718.19;5051428;28;20057;-87
2022/07/19 02:20:19;;;;;;;6.38;2.10;;;;;;;22.14;100.00;100737.09;5047818;28;20049;-87
2022/07/19 02:22:46;;;;;;;5.38;1.90;;;;;;;22.00;100.00;100724.97;5033901;28;20045;-87
2022/07/19 02:25:12;;;;;;;6.20;2.20;;;;;;;22.06;100.00;100736.91;5036684;28;20143;-88
2022/07/19 02:27:40;;;;;;;5.45;1.90;;;;;;;21.99;100.00;100731.25;5034425;28;20044;-88
2022/07/19 02:30:08;;;;;;;5.60;1.90;;;;;;;22.07;100.00;100733.28;5051755;28;20071;-88
2022/07/19 02:32:35;;;;;;;5.28;1.85;;;;;;;21.92;100.00;100711.44;5046246;28;20487;-87
2022/07/19 02:35:02;;;;;;;6.63;2.08;;;;;;;21.84;100.00;100725.44;5053274;28;20516;-88
2022/07/19 02:37:29;;;;;;;7.50;2.10;;;;;;;21.90;100.00;100713.38;5071793;28;20114;-88
2022/07/19 02:39:56;;;;;;;7.38;2.10;;;;;;;21.70;100.00;100704.44;5042215;28;20055;-87
2022/07/19 02:42:23;;;;;;;6.25;2.00;;;;;;;21.79;100.00;100709.81;5051575;28;20379;-87
2022/07/19 02:44:49;;;;;;;8.57;2.58;;;;;;;21.90;100.00;100718.72;5046077;28;20123;-88
2022/07/19 02:47:16;;;;;;;8.13;2.33;;;;;;;21.77;100.00;100703.78;5038291;28;20057;-88
2022/07/19 02:49:43;;;;;;;6.88;2.28;;;;;;;21.78;100.00;100699.31;5052528;28;20055;-88
2022/07/19 02:52:10;;;;;;;7.70;2.10;;;;;;;21.74;100.00;100690.75;5071242;28;20517;-88
2022/07/19 02:54:37;;;;;;;7.30;2.60;;;;;;;21.67;100.00;100680.72;5035589;28;20090;-88
2022/07/19 02:57:04;;;;;;;6.95;2.65;;;;;;;21.59;100.00;100671.56;5051013;28;20461;-86
2022/07/19 02:59:31;;;;;;;7.05;2.58;;;;;;;21.65;100.00;100669.34;5053820;28;20051;-87
2022/07/19 03:01:58;;;;;;;7.03;2.30;;;;;;;21.63;100.00;100685.47;5054054;28;20402;-87
2022/07/19 03:04:24;;;;;;;6.65;2.28;;;;;;;21.57;100.00;100678.00;5049574;28;20049;-88
2022/07/19 03:06:51;;;;;;;7.10;2.45;;;;;;;21.43;100.00;100671.16;5054090;28;20052;-87
2022/07/19 03:09:19;;;;;;;6.18;2.20;;;;;;;21.34;100.00;100679.91;5053941;28;20832;-88
2022/07/19 03:11:47;;;;;;;6.93;2.55;;;;;;;21.16;100.00;100653.00;5048281;28;20050;-88
2022/07/19 03:14:14;;;;;;;6.35;2.03;;;;;;;21.34;100.00;100670.09;5048180;28;20052;-88
2022/07/19 03:16:41;;;;;;;8.10;2.35;;;;;;;21.13;100.00;100654.09;5054318;28;20044;-88
2022/07/19 03:19:08;;;;;;;8.23;2.40;;;;;;;21.10;100.00;100659.69;5050543;28;20135;-88
2022/07/19 03:21:35;;;;;;;6.45;2.40;;;;;;;20.97;100.00;100653.69;5069307;28;20470;-88
2022/07/19 03:24:03;;;;;;;7.47;2.60;;;;;;;21.12;100.00;100663.06;5049947;28;20052;-88
2022/07/19 03:26:30;;;;;;;6.10;2.05;;;;;;;21.09;100.00;100639.38;5051922;28;20523;-87
2022/07/19 03:28:56;;;;;;;6.45;2.22;;;;;;;21.18;100.00;100643.09;5041123;28;20075;-87
2022/07/19 03:31:23;;;;;;;7.10;2.47;;;;;;;21.02;100.00;100617.75;5052824;28;20055;-87
2022/07/19 03:33:50;;;;;;;7.00;2.30;;;;;;;21.03;100.00;100623.91;5049873;28;20059;-87
2022/07/19 03:36:17;;;;;;;3.78;1.40;;;;;;;21.14;100.00;100642.50;5071370;28;20054;-88
2022/07/19 03:38:43;;;;;;;5.35;2.00;;;;;;;20.97;100.00;100635.06;5054130;28;20048;-88
2022/07/19 03:41:10;;;;;;;6.05;2.20;;;;;;;20.90;100.00;100612.59;5064390;28;20478;-87
2022/07/19 03:43:38;;;;;;;6.43;2.28;;;;;;;20.86;100.00;100634.13;5052839;28;20049;-88
2022/07/19 03:46:05;;;;;;;6.97;2.17;;;;;;;20.86;100.00;100623.50;5063220;28;20045;-87
2022/07/19 03:48:31;;;;;;;7.38;2.47;;;;;;;20.74;100.00;100621.84;5069981;28;20056;-87
2022/07/19 03:50:58;;;;;;;6.40;2.22;;;;;;;20.75;100.00;100649.28;5041021;28;20053;-87
2022/07/19 03:53:25;;;;;;;8.20;2.35;;;;;;;20.65;100.00;100658.03;5054011;28;20379;-87
2022/07/19 03:55:52;;;;;;;9.48;2.40;;;;;;;20.86;100.00;100636.81;5040942;28;20056;-87
2022/07/19 03:58:19;;;;;;;7.40;2.67;;;;;;;20.92;100.00;100645.25;5046683;28;20411;-87
2022/07/19 04:00:45;;;;;;;9.93;2.53;;;;;;;21.09;100.00;100635.84;5055068;28;20040;-87
2022/07/19 04:03:12;;;;;;;6.35;2.42;;;;;;;21.28;100.00;100643.13;5074484;28;20059;-87
2022/07/19 04:05:39;;;;;;;7.65;2.35;;;;;;;21.38;100.00;100649.38;5044865;28;20087;-87
2022/07/19 04:08:06;;;;;;;7.70;2.78;;;;;;;21.41;100.00;100646.47;5057502;28;20119;-87
2022/07/19 04:10:33;;;;;;;7.30;2.80;;;;;;;21.68;96.02;100642.44;5057250;28;20067;-87
2022/07/19 04:13:00;;;;;;;7.93;2.30;;;;;;;21.78;95.62;100638.03;5051999;28;20051;-87
2022/07/19 04:15:27;;;;;;;6.50;2.35;;;;;;;21.83;94.93;100645.59;5048522;28;20076;-87
2022/07/19 04:17:54;;;;;;;7.13;2.45;;;;;;;21.79;94.07;100627.22;5071019;28;20068;-87
2022/07/19 04:20:20;;;;;;;9.13;2.60;;;;;;;21.85;94.82;100636.50;5046350;28;20475;-87
2022/07/19 04:22:47;;;;;;;8.15;2.40;;;;;;;21.99;91.60;100636.16;5055815;28;20053;-88
2022/07/19 04:25:14;;;;;;;6.82;2.47;;;;;;;22.13;94.76;100634.09;5065975;28;20049;-87
2022/07/19 04:27:43;;;;;;;7.35;2.20;;;;;;;22.06;95.39;100638.25;5036776;28;20052;-88
2022/07/19 04:30:10;;;;;;;5.35;1.80;;;;;;;22.03;100.00;100642.06;5043075;28;20120;-87
2022/07/19 04:32:36;;;;;;;8.10;1.90;;;;;;;22.02;100.00;100631.53;5062491;28;20052;-88
2022/07/19 04:35:05;;;;;;;7.40;2.17;;;;;;;21.91;100.00;100621.81;5055951;28;20044;-89
2022/07/19 04:37:32;;;;;;;6.88;2.40;;;;;;;22.14;100.00;100631.28;5052790;28;20082;-88
2022/07/19 04:39:59;;;;;;;5.53;2.00;;;;;;;22.45;100.00;100630.41;5039151;28;20045;-88
2022/07/19 04:42:26;;;;;;;6.30;2.55;;;;;;;22.39;99.52;100606.97;5053935;28;20411;-88
2022/07/19 04:44:52;;;;;;;5.03;1.80;;;;;;;22.77;98.01;100622.19;5036744;28;20053;-88
2022/07/19 04:47:19;;;;;;;7.35;2.38;;;;;;;22.66;100.00;100615.13;5044580;28;20045;-88
2022/07/19 04:49:46;;;;;;;5.35;2.20;;;;;;;22.72;93.80;100587.91;5060406;28;20044;-87
2022/07/19 04:52:13;;;;;;;6.32;2.33;;;;;;;22.75;99.05;100603.63;5056092;28;20051;-88
2022/07/19 04:54:40;;;;;;;6.35;2.22;;;;;;;22.91;99.47;100595.06;5047875;28;20627;-88
2022/07/19 04:57:06;;;;;;;6.72;2.35;;;;;;;22.72;100.00;100577.22;5073681;28;20058;-88
2022/07/19 04:59:33;;;;;;;6.60;2.03;;;;;;;22.73;97.34;100581.59;5056665;28;20429;-88
2022/07/19 05:02:00;;;;;;;7.15;2.45;;;;;;;22.75;100.00;100584.09;5065433;28;20147;-88
2022/07/19 05:04:27;;;;;;;7.65;2.60;;;;;;;22.75;100.00;100568.94;5053023;28;20060;-86
2022/07/19 05:06:56;;;;;;;7.90;2.45;;;;;;;22.87;91.52;100536.75;5046773;28;20048;-87
2022/07/19 05:09:27;;;;;;;7.68;2.42;;;;;;;22.80;96.01;100539.16;5052913;28;20490;-88
2022/07/19 05:11:55;;;;;;;10.82;2.80;;;;;;;23.08;90.50;100566.00;5063799;28;20056;-88
2022/07/19 05:14:22;;;;;;;9.73;3.60;;;;;;;22.71;88.96;100562.19;5038718;28;20059;-89
2022/07/19 05:16:49;;;;;;;7.30;2.28;;;;;;;22.91;87.64;100559.50;5048381;28;20495;-88
2022/07/19 05:19:17;;;;;;;6.72;2.30;;;;;;;23.02;88.81;100567.38;5050471;28;20045;-89
2022/07/19 05:21:45;;;;;;;7.07;1.85;;;;;;;23.09;87.95;100531.13;5060407;28;20055;-88
2022/07/19 05:24:12;;;;;;;9.25;2.60;;;;;;;22.89;89.78;100527.59;5053313;28;20052;-88
2022/07/19 05:26:39;;;;;;;7.30;2.50;;;;;;;22.99;90.15;100548.13;5049785;28;20116;-88
2022/07/19 05:29:06;;;;;;;6.00;2.30;;;;;;;23.09;86.10;100549.00;5037042;28;20053;-88
2022/07/19 05:31:32;;;;;;;8.65;2.80;;;;;;;23.10;84.57;100531.97;5070238;28;20491;-89
2022/07/19 05:34:00;;;;;;;3.97;1.55;;;;;;;23.60;84.01;100542.38;5050216;28;20493;-88
2022/07/19 05:36:26;;;;;;;5.90;1.92;;;;;;;23.78;87.99;100552.25;5054199;28;20045;-88
2022/07/19 05:38:56;;;;;;;6.95;2.15;;;;;;;23.65;100.00;100556.09;5056807;28;20508;-88
2022/07/19 05:41:23;;;;;;;6.47;1.85;;;;;;;23.70;93.07;100585.09;5070068;28;20090;-88
2022/07/19 05:43:51;;;;;;;6.55;2.28;;;;;;;23.65;78.82;100568.63;5044531;28;20053;-89
2022/07/19 05:46:19;;;;;;;7.55;2.60;;;;;;;23.72;79.29;100577.75;5072931;28;20789;-88
2022/07/19 05:48:49;;;;;;;6.53;2.20;;;;;;;23.96;78.06;100555.88;5055054;28;20534;-88
2022/07/19 05:51:16;;;;;;;7.05;2.38;;;;;;;24.02;72.45;100557.94;5053971;28;20048;-89
2022/07/19 05:53:43;;;;;;;6.25;2.40;;;;;;;24.05;70.52;100573.69;5050262;28;20068;-88
2022/07/19 05:56:10;;;;;;;11.75;2.78;;;;;;;24.02;72.30;100567.78;5051274;28;20045;-86
2022/07/19 05:58:37;;;;;;;6.72;2.17;;;;;;;24.13;69.76;100588.97;5052188;28;20044;-88
2022/07/19 06:01:23;;;;;;;6.00;2.40;;;;;;;24.03;68.51;100588.22;5045509;28;20501;-88
2022/07/19 06:04:00;;;;;;;9.13;2.60;;;;;;;23.80;70.98;100567.22;5047121;28;20072;-87
2022/07/19 06:06:30;;;;;;;7.68;2.80;;;;;;;24.01;69.23;100556.28;5067195;28;20048;-87
2022/07/19 06:08:58;;;;;;;6.97;2.47;;;;;;;24.10;69.47;100596.47;5044846;28;20080;-90
2022/07/19 06:11:26;;;;;;;9.10;2.80;;;;;;;24.09;69.20;100562.69;5053570;28;20044;-88
2022/07/19 06:13:54;;;;;;;7.53;2.42;;;;;;;24.11;67.25;100572.25;5061263;28;20059;-87
2022/07/19 06:16:22;;;;;;;5.57;2.13;;;;;;;24.32;67.71;100587.19;5054559;28;20063;-88
2022/07/19 06:18:49;;;;;;;7.80;2.55;;;;;;;24.26;66.51;100573.41;5045772;28;20048;-89
2022/07/19 06:21:18;;;;;;;6.97;2.28;;;;;;;24.70;67.75;100585.25;5073436;28;20106;-86
2022/07/19 06:23:50;;;;;;;8.45;2.42;;;;;;;25.52;63.58;100599.31;5055391;28;20402;-88
2022/07/19 06:26:17;;;;;;;8.38;2.78;;;;;;;25.70;63.78;100589.34;5069659;28;20127;-89
2022/07/19 06:28:44;;;;;;;8.20;2.80;;;;;;;25.98;61.88;100585.66;5067909;28;20570;-89
2022/07/19 06:31:12;;;;;;;7.47;2.60;;;;;;;25.74;61.17;100605.94;5054575;28;20379;-89
2022/07/19 06:33:44;;;;;;;6.45;2.17;;;;;;;25.93;64.75;100561.97;5045921;28;20056;-88
2022/07/19 06:36:12;;;;;;;6.70;2.45;;;;;;;26.20;61.50;100568.09;5051491;28;20048;-89
2022/07/19 06:38:41;;;;;;;8.35;2.70;;;;;;;26.38;59.77;100589.44;5067473;28;20048;-89
2022/07/19 06:41:08;;;;;;;7.05;2.55;;;;;;;26.69;58.90;100550.25;5055422;28;20135;-89
2022/07/19 06:43:35;;;;;;;9.25;2.53;;;;;;;26.94;60.38;100552.09;5052417;28;20409;-88
2022/07/19 06:46:02;;;;;;;5.55;1.90;;;;;;;26.90;58.12;100562.34;5053403;28;20414;-88
2022/07/19 06:48:29;;;;;;;7.57;2.35;;;;;;;26.41;61.19;100549.69;5065338;28;20055;-89
2022/07/19 06:50:56;;;;;;;7.53;2.58;;;;;;;26.17;60.06;100541.59;5054559;28;20048;-89
2022/07/19 06:53:22;;;;;;;6.75;2.22;;;;;;;26.22;58.99;100572.28;5063108;28;20137;-89
2022/07/19 06:55:49;;;;;;;7.57;2.10;;;;;;;26.59;59.06;100583.59;5072599;28;20052;-88
2022/07/19 06:58:17;;;;;;;6.82;2.38;;;;;;;27.03;58.33;100592.22;5048598;28;20044;-88
2022/07/19 07:00:43;;;;;;;5.63;2.10;;;;;;;26.70;58.51;100562.69;5055306;28;20045;-89
2022/07/19 07:03:11;;;;;;;8.02;2.40;;;;;;;26.07;56.79;100506.88;5051881;28;20052;-88
2022/07/19 07:05:37;;;;;;;6.30;2.05;;;;;;;26.85;62.59;100557.47;5057929;28;20062;-88
2022/07/19 07:08:06;;;;;;;8.13;2.15;;;;;;;27.15;55.70;100492.47;5070824;28;20110;-88
2022/07/19 07:10:33;;;;;;;7.65;2.13;;;;;;;27.40;52.65;100529.03;5074332;28;20040;-86
2022/07/19 07:13:00;;;;;;;6.93;2.20;;;;;;;27.07;53.49;100520.16;5051962;28;20047;-88
2022/07/19 07:15:27;;;;;;;5.40;2.00;;;;;;;27.38;52.42;100490.72;5066843;28;20083;-87
2022/07/19 07:17:54;;;;;;;6.85;2.25;;;;;;;27.17;56.81;100504.69;5053154;28;20048;-87
2022/07/19 07:20:20;;;;;;;7.32;2.00;;;;;;;27.40;54.27;100515.59;5069173;28;20048;-87
2022/07/19 07:22:47;;;;;;;7.47;1.90;;;;;;;27.24;55.89;100502.16;5074292;28;20048;-87
2022/07/19 07:25:14;;;;;;;5.85;2.00;;;;;;;27.75;58.29;100494.59;5070412;28;20052;-88
2022/07/19 07:27:48;;;;;;;7.68;2.30;;;;;;;27.90;55.77;100497.38;5054296;28;20055;-87
2022/07/19 07:30:14;;;;;;;;;;;;;;;28.35;54.79;100536.16;5065286;28;20493;-89
2022/07/19 07:32:41;;;;;;;5.45;2.00;;;;;;;28.01;53.54;100498.84;5058560;28;19928;-91
2022/07/19 07:35:08;;;;;;;7.90;2.00;;;;;;;28.35;51.97;100538.03;5054628;28;20063;-89
2022/07/19 07:37:35;;;;;;;5.55;1.95;;;;;;;28.55;51.97;100506.09;5070209;28;20469;-88
2022/07/19 07:40:03;;;;;;;5.55;1.95;;;;;;;28.79;50.49;100483.47;5074898;28;20132;-89
2022/07/19 07:42:31;;;;;;;6.72;2.30;;;;;;;29.38;50.87;100498.88;5058573;28;20091;-89
2022/07/19 07:45:01;;;;;;;8.13;2.30;;;;;;;29.32;48.17;100478.03;5058911;28;20135;-89
2022/07/19 07:47:28;;;;;;;7.18;2.05;;;;;;;29.77;46.79;100494.22;5061421;28;20055;-87
2022/07/19 07:49:55;;;;;;;7.90;2.30;;;;;;;29.83;46.38;100488.88;5073997;28;20713;-89
2022/07/19 07:52:21;;;;;;;7.63;2.40;;;;;;;30.14;45.58;100525.56;5055706;28;20041;-89
2022/07/19 07:54:52;;;;;;;5.95;1.95;;;;;;;30.48;42.51;100464.63;5053405;28;20530;-88
2022/07/19 07:57:39;;;;;;;6.28;2.33;;;;;;;30.67;41.83;100466.66;5061295;28;20051;-89
2022/07/19 08:00:08;;;;;;;7.40;2.42;;;;;;;30.24;41.01;100433.44;5062164;28;20458;-89
2022/07/19 08:02:40;;;;;;;8.07;2.80;;;;;;;30.51;40.63;100477.75;5052434;28;20128;-88
2022/07/19 08:05:08;;;;;;;6.53;1.90;;;;;;;30.86;43.17;100480.50;5053914;28;20813;-89
2022/07/19 08:07:36;;;;;;;7.68;2.00;;;;;;;30.55;39.84;100454.72;5055962;28;20072;-88
2022/07/19 08:10:08;;;;;;;8.82;2.30;;;;;;;29.92;41.83;100495.00;5054716;28;20091;-88
2022/07/19 08:12:36;;;;;;;6.47;1.85;;;;;;;29.82;40.97;100435.09;5054503;28;20526;-88
2022/07/19 08:15:03;;;;;;;7.07;1.77;;;;;;;29.98;41.48;100464.56;5074228;28;20051;-88
2022/07/19 08:17:30;;;;;;;5.32;1.80;;;;;;;29.91;41.85;100466.34;5072351;28;20056;-88
2022/07/19 08:19:58;;;;;;;8.02;2.35;;;;;;;30.53;42.61;100480.25;5057962;28;20056;-87
2022/07/19 08:22:25;;;;;;;8.30;2.42;;;;;;;30.00;41.35;100480.56;5074659;28;20529;-87
2022/07/19 08:24:53;;;;;;;8.10;2.65;;;;;;;29.22;43.28;100445.16;5056782;28;20102;-88
2022/07/19 08:27:20;;;;;;;7.75;2.05;;;;;;;29.18;43.48;100450.09;5039486;28;20048;-88
2022/07/19 08:29:46;;;;;;;7.60;1.83;;;;;;;29.57;44.33;100454.31;5048898;28;20550;-87
2022/07/19 08:32:13;;;;;;;10.15;2.58;;;;;;;29.07;45.42;100454.03;5054868;28;20080;-88
2022/07/19 08:34:40;;;;;;;6.97;2.17;;;;;;;29.15;45.05;100421.63;5071541;28;20048;-88
2022/07/19 08:37:07;;;;;;;7.90;2.63;;;;;;;29.05;45.26;100474.13;5056271;28;20059;-88
2022/07/19 08:39:34;;;;;;;5.78;2.10;;;;;;;28.76;45.45;100451.53;5054958;28;20040;-87
2022/07/19 08:42:00;;;;;;;6.45;2.22;;;;;;;28.92;46.83;100458.59;5060631;28;20045;-87
2022/07/19 08:44:29;;;;;;;7.03;2.30;;;;;;;28.93;45.59;100473.72;5054423;28;20041;-88
2022/07/19 08:46:57;;;;;;;7.57;2.55;;;;;;;28.71;45.74;100468.22;5054659;28;20132;-88
2022/07/19 08:49:24;;;;;;;10.23;3.38;;;;;;;28.21;46.80;100451.63;5055717;28;20048;-88
2022/07/19 08:51:51;;;;;;;7.65;2.30;;;;;;;28.50;47.55;100473.44;5054095;28;20052;-88
2022/07/19 08:54:19;;;;;;;7.35;2.35;;;;;;;28.34;46.81;100439.41;5053633;28;20410;-87
2022/07/19 08:59:32;;;;;;;8.00;2.50;;;;;;;28.40;47.99;100476.38;5058855;28;20054;-89
2022/07/19 09:01:58;;;;;;;6.95;2.47;;;;;;;28.05;49.15;100426.69;5072406;28;20058;-88
2022/07/19 09:04:27;;;;;;;5.95;2.05;;;;;;;28.03;48.28;100406.19;5064930;28;20079;-89
2022/07/19 09:06:55;;;;;;;9.70;2.60;;;;;;;28.00;49.68;100471.13;5068673;28;20063;-87
2022/07/19 09:09:29;;;;;;;13.25;3.08;;;;;;;28.07;49.50;100401.28;5040170;28;20040;-88
2022/07/19 09:11:57;;;;;;;10.13;2.40;;;;;;;28.07;50.31;100406.66;5046304;28;20055;-88
2022/07/19 09:14:27;;;;;;;12.48;3.47;;;;;;;27.66;54.31;100444.56;5070110;28;20048;-87
2022/07/19 09:17:01;;;;;;;10.85;3.10;;;;;;;27.09;58.09;100414.22;5056559;28;20056;-88
2022/07/19 09:19:35;;;;;;;6.28;2.30;;;;;;;26.66;60.66;100346.50;5057351;28;20044;-87
2022/07/19 09:22:16;;;;;;;7.25;2.60;;;;;;;26.93;59.88;100390.06;5042802;28;20040;-88
2022/07/19 09:24:49;;;;;;;10.55;2.47;;;;;;;26.76;60.92;100378.56;5055131;28;20054;-88
2022/07/19 09:27:18;;;;;;;8.32;2.67;;;;;;;26.46;62.35;100439.16;5072632;28;20052;-88
2022/07/19 09:29:47;;;;;;;10.27;2.92;;;;;;;25.41;63.56;100406.59;5062593;28;20160;-89
2022/07/19 09:32:19;;;;;;;17.17;3.70;;;;;;;24.97;69.18;100463.81;5054136;28;20052;-87
2022/07/19 09:35:03;;;;;;;22.60;4.30;;;;;;;24.73;71.93;100417.13;5056070;28;20072;-88
2022/07/19 09:37:34;;;;;;;16.13;3.75;;;;;;;24.68;73.47;100368.56;5074359;28;20079;-89
2022/07/19 09:40:06;;;;;;;13.23;3.20;;;;;;;25.86;71.76;100360.63;5056283;28;20406;-87
2022/07/19 09:42:39;;;;;;;11.35;3.15;;;;;;;26.59;67.70;100387.63;5051158;28;20047;-87
2022/07/19 09:45:08;;;;;;;7.05;2.45;;;;;;;27.23;65.59;100404.59;5054726;28;20139;-89
2022/07/19 09:47:41;;;;;;;7.63;2.40;;;;;;;27.57;62.74;100424.94;5067075;28;20048;-89
2022/07/19 09:50:08;;;;;;;;;;;;;;;27.50;65.15;100477.75;5062485;28;20048;-89
2022/07/19 09:52:36;;;;;;;8.60;2.90;;;;;;;27.25;64.34;100416.00;5037380;28;20023;-88
2022/07/19 09:55:13;;;;;;;8.88;2.67;;;;;;;27.63;60.67;100397.34;5053841;28;20391;-88
2022/07/19 09:57:45;;;;;;;9.32;2.95;;;;;;;27.86;58.68;100361.56;5041452;28;20084;-89
2022/07/19 10:00:14;;;;;;;9.05;2.97;;;;;;;27.56;60.70;100379.41;5052250;28;20060;-89
2022/07/19 10:02:49;;;;;;;9.73;2.95;;;;;;;27.65;59.88;100399.84;5050945;28;20462;-88
2022/07/19 10:05:17;;;;;;;8.20;2.65;;;;;;;27.61;60.76;100402.06;5049165;28;20116;-88
2022/07/19 10:07:44;;;;;;;7.28;2.55;;;;;;;27.84;59.18;100359.03;5056535;28;20052;-89
2022/07/19 10:10:13;;;;;;;8.15;2.80;;;;;;;28.04;61.08;100439.31;5056455;28;20053;-88
2022/07/19 10:12:44;;;;;;;11.82;3.40;;;;;;;27.92;59.45;100336.63;5050134;28;20051;-89
2022/07/19 10:15:14;;;;;;;7.80;2.92;;;;;;;27.93;62.19;100346.41;5037521;28;20083;-89
2022/07/19 10:18:07;;;;;;;10.50;3.30;;;;;;;28.04;64.15;100401.63;5051719;28;20175;-89
2022/07/19 10:20:34;;;;;;;;;;;;;;;28.09;65.27;100415.38;5043909;28;20044;-89
2022/07/19 10:23:02;;;;;;;5.15;1.85;;;;;;;27.94;61.44;100419.88;5050608;28;19928;-88
2022/07/19 10:25:46;;;;;;;7.80;2.22;;;;;;;28.18;62.64;100459.22;5045693;28;20055;-88
2022/07/19 10:28:31;;;;;;;;;;;;;;;27.87;64.49;100478.06;5068529;28;20049;-86
2022/07/19 10:31:30;;;;;;;7.82;2.65;;;;;;;27.13;65.68;100433.50;5061122;28;19927;-86
2022/07/19 10:34:01;;;;;;;8.60;2.20;;;;;;;27.27;67.52;100451.63;5045087;28;20044;-87
2022/07/19 10:36:39;;;;;;;7.55;2.53;;;;;;;27.30;66.37;100457.66;5038420;28;20079;-87
2022/07/19 10:39:18;;;;;;;7.93;2.67;;;;;;;27.21;77.52;100486.38;5052754;28;20123;-87
2022/07/19 10:42:03;;;;;;;6.93;2.42;;;;;;;27.05;81.80;100463.91;5061929;28;20040;-87
2022/07/19 10:44:31;;;;;;;7.88;2.70;;;;;;;27.17;81.81;100464.41;5066791;28;20463;-87
2022/07/19 10:46:58;;;;;;;7.82;2.42;;;;;;;27.02;88.78;100449.97;5052718;28;20053;-87
2022/07/19 10:49:45;;;;;;;8.07;2.75;;;;;;;27.47;75.89;100453.91;5069255;28;20040;-87
2022/07/19 10:52:28;;;;;;;6.15;2.15;;;;;;;27.49;78.92;100459.94;5079710;28;20059;-87
2022/07/19 10:55:14;;;;;;;8.48;2.63;;;;;;;27.67;77.62;100443.53;5066835;28;20401;-88
2022/07/19 10:57:41;;;;;;;7.40;2.55;;;;;;;27.56;89.77;100438.56;5092954;28;20558;-87
2022/07/19 11:00:18;;;;;;;8.38;2.53;;;;;;;27.37;100.00;100437.13;5102055;28;20503;-87
2022/07/19 11:02:46;;;;;;;6.55;2.40;;;;;;;27.58;100.00;100432.00;5088809;28;20082;-87
2022/07/19 11:05:31;;;;;;;7.65;2.15;;;;;;;27.88;100.00;100450.97;5065788;28;20063;-87
2022/07/19 11:07:58;;;;;;;6.07;2.22;;;;;;;27.72;95.96;100446.53;5089418;28;20048;-88
2022/07/19 11:10:27;;;;;;;8.57;2.20;;;;;;;27.99;100.00;100445.25;5061589;28;20040;-87
2022/07/19 11:12:56;;;;;;;8.52;2.80;;;;;;;28.00;100.00;100451.44;5068234;28;20047;-87
2022/07/19 11:15:27;;;;;;;12.27;3.47;;;;;;;27.96;100.00;100440.22;5068177;28;20052;-87
2022/07/19 11:18:06;;;;;;;8.25;2.38;;;;;;;28.12;100.00;100438.41;5076017;28;20131;-87
2022/07/19 11:20:35;;;;;;;7.65;2.53;;;;;;;28.40;97.37;100455.69;5063023;28;20074;-87
2022/07/19 11:23:04;;;;;;;11.90;3.72;;;;;;;27.97;96.70;100447.25;5086995;28;20048;-88
2022/07/19 11:25:34;;;;;;;9.73;3.17;;;;;;;28.27;88.39;100486.91;5064888;28;20044;-88
2022/07/19 11:28:00;;;;;;;12.00;3.80;;;;;;;28.25;84.89;100462.88;5059723;28;20483;-88
2022/07/19 11:30:32;;;;;;;18.05;4.82;;;;;;;28.18;81.81;100478.91;5076670;28;20048;-88
2022/07/19 11:33:05;;;;;;;14.80;4.85;;;;;;;27.98;81.46;100467.78;5076083;28;20437;-88